Time,TemperatureF,DewpointF,PressureIn,WindDirection,WindDirectionDegrees,WindSpeedMPH,WindSpeedGustMPH,Humidity,HourlyPrecipIn,Conditions,Clouds,dailyrainin,SoftwareType,DateUTC
2013-02-24 00:05:00,37.4,35.0,30.45,NNE,26,2.0,17.0,91,0.00,,,0.00,Wunderground v.1.15,2013-02-24 08:05:00,
2013-02-24 00:10:00,37.5,35.1,30.45,NNE,26,2.0,3.0,91,0.00,,,0.00,Wunderground v.1.15,2013-02-24 08:10:00,
2013-02-24 00:16:00,37.5,35.1,30.45,NNE,26,2.0,3.0,91,0.00,,,0.00,Wunderground v.1.15,2013-02-24 08:16:00,
2013-02-24 00:21:00,37.6,35.5,30.45,NNE,26,2.0,2.0,92,0.00,,,0.00,Wunderground v.1.15,2013-02-24 08:21:00,
2013-02-24 00:26:00,37.7,35.3,30.45,NNE,26,1.0,3.0,91,0.00,,,0.00,Wunderground v.1.15,2013-02-24 08:26:00,
2013-02-24 00:32:00,37.7,35.3,30.45,NNE,26,1.0,2.0,91,0.00,,,0.00,Wunderground v.1.15,2013-02-24 08:32:00,
2013-02-24 00:37:00,37.7,35.3,30.45,NNE,26,1.0,2.0,91,0.00,,,0.00,Wunderground v.1.15,2013-02-24 08:37:00,
2013-02-24 00:43:00,37.8,35.4,30.45,NNE,26,1.0,1.0,91,0.00,,,0.00,Wunderground v.1.15,2013-02-24 08:43:00,
2013-02-24 00:49:00,37.8,35.4,30.45,NNE,26,1.0,2.0,91,0.00,,,0.00,Wunderground v.1.15,2013-02-24 08:49:00,
2013-02-24 00:54:00,37.9,35.5,30.45,NNE,26,1.0,2.0,91,0.00,,,0.00,Wunderground v.1.15,2013-02-24 08:54:00,
2013-02-24 01:00:00,37.9,35.5,30.45,NNE,26,1.0,1.0,91,0.00,,,0.00,Wunderground v.1.15,2013-02-24 09:00:00,
2013-02-24 01:05:00,38.0,35.6,30.45,NNE,26,0.0,4.0,91,0.00,,,0.00,Wunderground v.1.15,2013-02-24 09:05:00,
2013-02-24 01:11:00,38.0,35.9,30.45,NNE,26,0.0,4.0,92,0.00,,,0.00,Wunderground v.1.15,2013-02-24 09:11:00,
2013-02-24 01:16:00,38.0,35.6,30.45,NNE,26,0.0,4.0,91,0.00,,,0.00,Wunderground v.1.15,2013-02-24 09:16:00,
2013-02-24 01:21:00,38.0,35.6,30.44,NNE,26,1.0,4.0,91,0.00,,,0.00,Wunderground v.1.15,2013-02-24 09:21:00,
2013-02-24 01:27:00,38.0,35.9,30.44,NNE,26,2.0,4.0,92,0.00,,,0.00,Wunderground v.1.15,2013-02-24 09:27:00,
2013-02-24 01:33:00,38.0,35.9,30.45,NNE,26,1.0,4.0,92,0.00,,,0.00,Wunderground v.1.15,2013-02-24 09:33:00,
2013-02-24 01:39:00,38.0,35.9,30.45,NNE,26,1.0,4.0,92,0.00,,,0.00,Wunderground v.1.15,2013-02-24 09:39:00,
2013-02-24 01:44:00,37.8,35.4,30.45,NNE,26,2.0,4.0,91,0.00,,,0.00,Wunderground v.1.15,2013-02-24 09:44:00,
2013-02-24 01:50:00,37.6,35.2,30.45,NNE,26,3.0,4.0,91,0.00,,,0.00,Wunderground v.1.15,2013-02-24 09:50:00,
2013-02-24 01:55:00,37.4,35.3,30.45,NNE,26,3.0,4.0,92,0.00,,,0.00,Wunderground v.1.15,2013-02-24 09:55:00,
2013-02-24 02:01:00,37.1,34.7,30.44,NNE,26,3.0,5.0,91,0.00,,,0.00,Wunderground v.1.15,2013-02-24 10:01:00,
2013-02-24 02:07:00,36.8,34.7,30.44,NE,45,3.0,5.0,92,0.00,,,0.00,Wunderground v.1.15,2013-02-24 10:07:00,
2013-02-24 02:13:00,36.6,34.5,30.44,NE,51,3.0,5.0,92,0.00,,,0.00,Wunderground v.1.15,2013-02-24 10:13:00,
2013-02-24 02:18:00,36.4,34.3,30.44,NE,51,2.0,5.0,92,0.00,,,0.00,Wunderground v.1.15,2013-02-24 10:18:00,
2013-02-24 02:23:00,36.2,34.1,30.44,NE,51,2.0,4.0,92,0.00,,,0.00,Wunderground v.1.15,2013-02-24 10:23:00,
2013-02-24 02:29:00,36.0,33.9,30.44,ENE,57,2.0,4.0,92,0.00,,,0.00,Wunderground v.1.15,2013-02-24 10:29:00,
2013-02-24 02:35:00,35.8,33.7,30.43,ENE,60,3.0,4.0,92,0.00,,,0.00,Wunderground v.1.15,2013-02-24 10:35:00,
2013-02-24 02:41:00,35.6,33.5,30.43,ENE,60,2.0,3.0,92,0.00,,,0.00,Wunderground v.1.15,2013-02-24 10:41:00,
2013-02-24 02:46:00,35.5,33.7,30.43,ENE,61,2.0,4.0,93,0.00,,,0.00,Wunderground v.1.15,2013-02-24 10:46:00,
2013-02-24 02:51:00,35.4,33.6,30.43,ENE,61,3.0,4.0,93,0.00,,,0.00,Wunderground v.1.15,2013-02-24 10:51:00,
2013-02-24 02:57:00,35.3,33.5,30.43,ENE,61,3.0,4.0,93,0.00,,,0.00,Wunderground v.1.15,2013-02-24 10:57:00,
2013-02-24 03:02:00,35.2,33.4,30.43,ENE,61,3.0,4.0,93,0.00,,,0.00,Wunderground v.1.15,2013-02-24 11:02:00,
2013-02-24 03:08:00,35.0,33.2,30.43,ENE,65,3.0,5.0,93,0.00,,,0.00,Wunderground v.1.15,2013-02-24 11:08:00,
2013-02-24 03:14:00,34.9,33.1,30.43,ENE,65,3.0,4.0,93,0.00,,,0.00,Wunderground v.1.15,2013-02-24 11:14:00,
2013-02-24 03:19:00,34.8,33.0,30.43,ENE,65,3.0,4.0,93,0.00,,,0.00,Wunderground v.1.15,2013-02-24 11:19:00,
2013-02-24 03:25:00,34.7,32.9,30.43,ENE,65,3.0,5.0,93,0.00,,,0.00,Wunderground v.1.15,2013-02-24 11:25:00,
2013-02-24 03:30:00,34.6,32.8,30.43,ENE,66,3.0,4.0,93,0.00,,,0.00,Wunderground v.1.15,2013-02-24 11:30:00,
2013-02-24 03:36:00,34.4,32.6,30.43,ENE,66,3.0,4.0,93,0.00,,,0.00,Wunderground v.1.15,2013-02-24 11:36:00,
2013-02-24 03:42:00,34.4,32.9,30.42,East,79,4.0,5.0,94,0.00,,,0.00,Wunderground v.1.15,2013-02-24 11:42:00,
2013-02-24 03:47:00,34.3,32.8,30.42,East,81,4.0,5.0,94,0.00,,,0.00,Wunderground v.1.15,2013-02-24 11:47:00,
2013-02-24 03:53:00,34.3,32.8,30.42,East,82,5.0,6.0,94,0.00,,,0.00,Wunderground v.1.15,2013-02-24 11:53:00,
2013-02-24 03:59:00,34.2,32.7,30.42,East,82,4.0,6.0,94,0.00,,,0.00,Wunderground v.1.15,2013-02-24 11:59:00,
2013-02-24 04:04:00,34.1,32.6,30.42,East,82,3.0,5.0,94,0.00,,,0.00,Wunderground v.1.15,2013-02-24 12:04:00,
2013-02-24 04:10:00,34.0,32.5,30.42,East,82,3.0,5.0,94,0.00,,,0.00,Wunderground v.1.15,2013-02-24 12:10:00,
2013-02-24 04:16:00,34.0,32.5,30.42,East,82,3.0,5.0,94,0.00,,,0.00,Wunderground v.1.15,2013-02-24 12:16:00,
2013-02-24 04:21:00,33.9,32.4,30.42,East,82,4.0,5.0,94,0.00,,,0.00,Wunderground v.1.15,2013-02-24 12:21:00,
2013-02-24 04:27:00,33.9,32.4,30.42,East,82,4.0,6.0,94,0.00,,,0.00,Wunderground v.1.15,2013-02-24 12:27:00,
2013-02-24 04:33:00,33.8,32.3,30.42,East,82,4.0,5.0,94,0.00,,,0.00,Wunderground v.1.15,2013-02-24 12:33:00,
2013-02-24 04:39:00,33.8,32.3,30.42,East,82,4.0,5.0,94,0.00,,,0.00,Wunderground v.1.15,2013-02-24 12:39:00,
2013-02-24 04:44:00,33.8,32.3,30.42,East,82,4.0,6.0,94,0.00,,,0.00,Wunderground v.1.15,2013-02-24 12:44:00,
2013-02-24 04:49:00,33.7,32.2,30.42,East,82,4.0,6.0,94,0.00,,,0.00,Wunderground v.1.15,2013-02-24 12:49:00,
2013-02-24 04:54:00,33.5,32.0,30.42,East,82,4.0,6.0,94,0.00,,,0.00,Wunderground v.1.15,2013-02-24 12:54:00,
2013-02-24 05:00:00,33.4,31.9,30.42,East,82,4.0,4.0,94,0.00,,,0.00,Wunderground v.1.15,2013-02-24 13:00:00,
2013-02-24 05:05:00,33.4,31.9,30.42,East,82,4.0,6.0,94,0.00,,,0.00,Wunderground v.1.15,2013-02-24 13:05:00,
2013-02-24 05:10:00,33.4,31.9,30.42,East,82,4.0,5.0,94,0.00,,,0.00,Wunderground v.1.15,2013-02-24 13:10:00,
2013-02-24 05:16:00,33.5,32.0,30.42,East,82,5.0,6.0,94,0.00,,,0.00,Wunderground v.1.15,2013-02-24 13:16:00,
2013-02-24 05:22:00,33.4,31.9,30.42,East,82,5.0,6.0,94,0.00,,,0.00,Wunderground v.1.15,2013-02-24 13:22:00,
2013-02-24 05:28:00,33.3,31.8,30.42,East,83,5.0,6.0,94,0.00,,,0.00,Wunderground v.1.15,2013-02-24 13:28:00,
2013-02-24 05:33:00,33.2,31.7,30.42,East,83,4.0,5.0,94,0.00,,,0.00,Wunderground v.1.15,2013-02-24 13:33:00,
2013-02-24 05:38:00,33.2,31.7,30.42,East,83,4.0,5.0,94,0.00,,,0.00,Wunderground v.1.15,2013-02-24 13:38:00,
2013-02-24 05:43:00,33.1,31.6,30.41,East,83,5.0,6.0,94,0.00,,,0.00,Wunderground v.1.15,2013-02-24 13:43:00,
2013-02-24 05:48:00,33.1,31.6,30.41,East,84,5.0,6.0,94,0.00,,,0.00,Wunderground v.1.15,2013-02-24 13:48:00,
2013-02-24 05:53:00,33.1,31.6,30.42,East,84,5.0,5.0,94,0.00,,,0.00,Wunderground v.1.15,2013-02-24 13:53:00,
2013-02-24 05:59:00,33.0,31.5,30.42,East,84,4.0,5.0,94,0.00,,,0.00,Wunderground v.1.15,2013-02-24 13:59:00,
2013-02-24 06:04:00,33.0,31.5,30.42,East,84,4.0,6.0,94,0.00,,,0.00,Wunderground v.1.15,2013-02-24 14:04:00,
2013-02-24 06:10:00,33.0,31.5,30.41,East,86,5.0,6.0,94,0.00,,,0.00,Wunderground v.1.15,2013-02-24 14:10:00,
2013-02-24 06:15:00,32.9,31.4,30.41,East,86,4.0,6.0,94,0.00,,,0.00,Wunderground v.1.15,2013-02-24 14:15:00,
2013-02-24 06:21:00,33.0,31.5,30.42,East,86,4.0,6.0,94,0.00,,,0.00,Wunderground v.1.15,2013-02-24 14:21:00,
2013-02-24 06:26:00,33.0,31.5,30.41,East,86,4.0,6.0,94,0.00,,,0.00,Wunderground v.1.15,2013-02-24 14:26:00,
2013-02-24 06:31:00,33.0,31.5,30.41,East,86,4.0,4.0,94,0.00,,,0.00,Wunderground v.1.15,2013-02-24 14:31:00,
2013-02-24 06:37:00,32.9,31.4,30.41,East,86,4.0,5.0,94,0.00,,,0.00,Wunderground v.1.15,2013-02-24 14:37:00,
2013-02-24 06:43:00,33.0,31.5,30.41,East,86,4.0,4.0,94,0.00,,,0.00,Wunderground v.1.15,2013-02-24 14:43:00,
2013-02-24 06:48:00,33.0,31.5,30.41,East,86,4.0,5.0,94,0.00,,,0.00,Wunderground v.1.15,2013-02-24 14:48:00,
2013-02-24 06:54:00,33.1,31.6,30.41,East,86,4.0,6.0,94,0.00,,,0.00,Wunderground v.1.15,2013-02-24 14:54:00,
2013-02-24 07:00:00,33.1,31.3,30.40,East,86,4.0,4.0,93,0.00,,,0.00,Wunderground v.1.15,2013-02-24 15:00:00,
2013-02-24 07:06:00,33.2,31.4,30.40,East,86,4.0,6.0,93,0.00,,,0.00,Wunderground v.1.15,2013-02-24 15:06:00,
2013-02-24 07:11:00,33.2,31.4,30.40,East,86,4.0,5.0,93,0.00,,,0.00,Wunderground v.1.15,2013-02-24 15:11:00,
2013-02-24 07:17:00,33.2,31.4,30.40,East,86,3.0,5.0,93,0.00,,,0.00,Wunderground v.1.15,2013-02-24 15:17:00,
2013-02-24 07:22:00,33.3,31.5,30.40,East,86,3.0,5.0,93,0.00,,,0.00,Wunderground v.1.15,2013-02-24 15:22:00,
2013-02-24 07:27:00,33.4,31.6,30.40,East,86,2.0,5.0,93,0.00,,,0.00,Wunderground v.1.15,2013-02-24 15:27:00,
2013-02-24 07:33:00,33.5,31.7,30.40,East,86,3.0,4.0,93,0.00,,,0.00,Wunderground v.1.15,2013-02-24 15:33:00,
2013-02-24 07:39:00,33.6,31.8,30.40,East,86,3.0,5.0,93,0.00,,,0.00,Wunderground v.1.15,2013-02-24 15:39:00,
2013-02-24 07:45:00,33.8,32.0,30.40,East,86,4.0,5.0,93,0.00,,,0.00,Wunderground v.1.15,2013-02-24 15:45:00,
2013-02-24 07:51:00,34.0,32.2,30.40,East,87,5.0,6.0,93,0.00,,,0.00,Wunderground v.1.15,2013-02-24 15:51:00,
2013-02-24 07:57:00,34.1,32.3,30.40,East,87,4.0,6.0,93,0.00,,,0.00,Wunderground v.1.15,2013-02-24 15:57:00,
2013-02-24 08:03:00,34.3,32.5,30.40,East,87,5.0,7.0,93,0.00,,,0.00,Wunderground v.1.15,2013-02-24 16:03:00,
2013-02-24 08:08:00,34.4,32.3,30.39,East,88,5.0,7.0,92,0.00,,,0.00,Wunderground v.1.15,2013-02-24 16:08:00,
2013-02-24 08:14:00,34.6,32.5,30.39,East,88,5.0,5.0,92,0.00,,,0.00,Wunderground v.1.15,2013-02-24 16:14:00,
2013-02-24 08:19:00,34.9,32.8,30.39,East,97,5.0,5.0,92,0.00,,,0.00,Wunderground v.1.15,2013-02-24 16:19:00,
2013-02-24 08:24:00,35.1,33.0,30.39,East,97,4.0,6.0,92,0.00,,,0.00,Wunderground v.1.15,2013-02-24 16:24:00,
2013-02-24 08:29:00,35.4,33.3,30.39,East,97,4.0,4.0,92,0.00,,,0.00,Wunderground v.1.15,2013-02-24 16:29:00,
2013-02-24 08:35:00,35.8,33.7,30.39,East,98,3.0,5.0,92,0.00,,,0.00,Wunderground v.1.15,2013-02-24 16:35:00,
2013-02-24 08:41:00,36.1,33.7,30.39,East,98,3.0,4.0,91,0.00,,,0.00,Wunderground v.1.15,2013-02-24 16:41:00,
2013-02-24 08:47:00,36.3,33.9,30.39,East,96,4.0,6.0,91,0.00,,,0.00,Wunderground v.1.15,2013-02-24 16:47:00,
2013-02-24 08:52:00,36.5,34.1,30.39,East,90,5.0,5.0,91,0.00,,,0.00,Wunderground v.1.15,2013-02-24 16:52:00,
2013-02-24 08:58:00,36.7,34.0,30.39,East,90,5.0,7.0,90,0.00,,,0.00,Wunderground v.1.15,2013-02-24 16:58:00,
2013-02-24 09:03:00,37.0,34.3,30.39,East,88,4.0,6.0,90,0.00,,,0.00,Wunderground v.1.15,2013-02-24 17:03:00,
2013-02-24 09:09:00,37.5,34.6,30.39,East,91,5.0,7.0,89,0.00,,,0.00,Wunderground v.1.15,2013-02-24 17:09:00,
2013-02-24 09:15:00,38.0,35.0,30.39,East,98,5.0,6.0,89,0.00,,,0.00,Wunderground v.1.15,2013-02-24 17:15:00,
2013-02-24 09:20:00,38.5,35.3,30.39,East,95,4.0,5.0,88,0.00,,,0.00,Wunderground v.1.15,2013-02-24 17:20:00,
2013-02-24 09:26:00,39.3,36.0,30.39,ESE,108,4.0,9.0,88,0.00,,,0.00,Wunderground v.1.15,2013-02-24 17:26:00,
2013-02-24 09:31:00,39.8,36.0,30.39,East,99,5.0,8.0,86,0.00,,,0.00,Wunderground v.1.15,2013-02-24 17:31:00,
2013-02-24 09:36:00,40.2,36.1,30.39,East,90,6.0,8.0,85,0.00,,,0.00,Wunderground v.1.15,2013-02-24 17:36:00,
2013-02-24 09:41:00,40.6,36.1,30.39,East,95,5.0,6.0,84,0.00,,,0.00,Wunderground v.1.15,2013-02-24 17:41:00,
2013-02-24 09:47:00,41.1,36.3,30.39,East,92,4.0,6.0,83,0.00,,,0.00,Wunderground v.1.15,2013-02-24 17:47:00,
2013-02-24 09:53:00,41.6,36.2,30.39,East,89,3.0,7.0,81,0.00,,,0.00,Wunderground v.1.15,2013-02-24 17:53:00,
2013-02-24 09:59:00,42.0,36.6,30.38,East,84,3.0,7.0,81,0.00,,,0.00,Wunderground v.1.15,2013-02-24 17:59:00,
2013-02-24 10:05:00,42.1,36.4,30.38,East,81,5.0,7.0,80,0.00,,,0.00,Wunderground v.1.15,2013-02-24 18:05:00,
2013-02-24 10:10:00,42.2,36.2,30.38,East,81,5.0,5.0,79,0.00,,,0.00,Wunderground v.1.15,2013-02-24 18:10:00,
2013-02-24 10:15:00,42.3,36.3,30.38,ENE,75,5.0,5.0,79,0.00,,,0.00,Wunderground v.1.15,2013-02-24 18:15:00,
2013-02-24 10:20:00,42.7,36.6,30.38,East,80,5.0,6.0,79,0.00,,,0.00,Wunderground v.1.15,2013-02-24 18:20:00,
2013-02-24 10:26:00,43.1,37.0,30.38,ENE,74,4.0,6.0,79,0.00,,,0.00,Wunderground v.1.15,2013-02-24 18:26:00,
2013-02-24 10:31:00,43.0,36.6,30.38,ENE,66,4.0,5.0,78,0.00,,,0.00,Wunderground v.1.15,2013-02-24 18:31:00,
2013-02-24 10:36:00,42.9,36.5,30.38,ENE,67,4.0,5.0,78,0.00,,,0.00,Wunderground v.1.15,2013-02-24 18:36:00,
2013-02-24 10:42:00,43.0,36.6,30.38,ENE,62,4.0,5.0,78,0.00,,,0.00,Wunderground v.1.15,2013-02-24 18:42:00,
2013-02-24 10:47:00,43.3,36.9,30.37,ENE,61,4.0,5.0,78,0.00,,,0.00,Wunderground v.1.15,2013-02-24 18:47:00,
2013-02-24 10:53:00,43.6,36.9,30.37,ENE,63,5.0,7.0,77,0.00,,,0.00,Wunderground v.1.15,2013-02-24 18:53:00,
2013-02-24 10:59:00,43.8,36.7,30.37,ENE,61,5.0,8.0,76,0.00,,,0.00,Wunderground v.1.15,2013-02-24 18:59:00,
2013-02-24 11:04:00,44.1,36.7,30.37,ENE,63,6.0,6.0,75,0.00,,,0.00,Wunderground v.1.15,2013-02-24 19:04:00,
2013-02-24 11:09:00,44.3,36.9,30.37,ENE,62,5.0,8.0,75,0.00,,,0.00,Wunderground v.1.15,2013-02-24 19:09:00,
2013-02-24 11:14:00,44.6,36.8,30.37,ENE,65,5.0,8.0,74,0.00,,,0.00,Wunderground v.1.15,2013-02-24 19:14:00,
2013-02-24 11:20:00,44.8,36.7,30.36,ENE,65,5.0,5.0,73,0.00,,,0.00,Wunderground v.1.15,2013-02-24 19:20:00,
2013-02-24 11:25:00,45.0,36.5,30.36,ENE,61,5.0,5.0,72,0.00,,,0.00,Wunderground v.1.15,2013-02-24 19:25:00,
2013-02-24 11:30:00,45.3,36.8,30.36,ENE,63,4.0,4.0,72,0.00,,,0.00,Wunderground v.1.15,2013-02-24 19:30:00,
2013-02-24 11:36:00,45.8,36.9,30.36,ENE,63,4.0,4.0,71,0.00,,,0.00,Wunderground v.1.15,2013-02-24 19:36:00,
2013-02-24 11:42:00,46.2,37.0,30.35,ENE,63,4.0,5.0,70,0.00,,,0.00,Wunderground v.1.15,2013-02-24 19:42:00,
2013-02-24 11:48:00,46.6,37.7,30.36,NE,46,4.0,5.0,71,0.00,,,0.00,Wunderground v.1.15,2013-02-24 19:48:00,
2013-02-24 11:54:00,46.9,38.0,30.35,NE,36,3.0,4.0,71,0.00,,,0.00,Wunderground v.1.15,2013-02-24 19:54:00,
2013-02-24 11:59:00,46.9,38.0,30.36,NNE,13,3.0,4.0,71,0.00,,,0.00,Wunderground v.1.15,2013-02-24 19:59:00,
2013-02-24 12:05:00,46.7,37.1,30.35,North,10,4.0,6.0,69,0.00,,,0.00,Wunderground v.1.15,2013-02-24 20:05:00,
2013-02-24 12:11:00,46.9,38.7,30.36,NW,321,4.0,7.0,73,0.00,,,0.00,Wunderground v.1.15,2013-02-24 20:11:00,
2013-02-24 12:17:00,46.8,38.9,30.35,NW,323,5.0,7.0,74,0.00,,,0.00,Wunderground v.1.15,2013-02-24 20:17:00,
2013-02-24 12:22:00,46.6,38.8,30.35,NW,317,6.0,7.0,74,0.00,,,0.00,Wunderground v.1.15,2013-02-24 20:22:00,
2013-02-24 12:28:00,46.1,37.9,30.35,NW,323,7.0,7.0,73,0.00,,,0.00,Wunderground v.1.15,2013-02-24 20:28:00,
2013-02-24 12:33:00,46.2,39.1,30.35,NW,309,6.0,7.0,76,0.00,,,0.00,Wunderground v.1.15,2013-02-24 20:33:00,
2013-02-24 12:38:00,46.3,38.8,30.35,NW,312,6.0,7.0,75,0.00,,,0.00,Wunderground v.1.15,2013-02-24 20:38:00,
2013-02-24 12:43:00,46.5,39.0,30.35,NW,308,6.0,7.0,75,0.00,,,0.00,Wunderground v.1.15,2013-02-24 20:43:00,
2013-02-24 12:49:00,46.5,39.0,30.34,NW,305,5.0,7.0,75,0.00,,,0.00,Wunderground v.1.15,2013-02-24 20:49:00,
2013-02-24 12:55:00,46.5,38.0,30.34,NW,308,5.0,8.0,72,0.00,,,0.00,Wunderground v.1.15,2013-02-24 20:55:00,
2013-02-24 13:00:00,46.5,37.2,30.34,NW,311,5.0,7.0,70,0.00,,,0.00,Wunderground v.1.15,2013-02-24 21:00:00,
2013-02-24 13:06:00,46.4,37.5,30.34,NW,310,6.0,7.0,71,0.00,,,0.00,Wunderground v.1.15,2013-02-24 21:06:00,
2013-02-24 13:12:00,46.5,36.9,30.34,WNW,300,5.0,6.0,69,0.00,,,0.00,Wunderground v.1.15,2013-02-24 21:12:00,
2013-02-24 13:17:00,46.5,37.2,30.33,WNW,296,4.0,6.0,70,0.00,,,0.00,Wunderground v.1.15,2013-02-24 21:17:00,
2013-02-24 13:23:00,46.7,37.1,30.33,NW,304,4.0,6.0,69,0.00,,,0.00,Wunderground v.1.15,2013-02-24 21:23:00,
2013-02-24 13:28:00,46.6,36.6,30.33,WNW,301,4.0,6.0,68,0.00,,,0.00,Wunderground v.1.15,2013-02-24 21:28:00,
2013-02-24 13:33:00,46.5,36.5,30.32,WNW,301,4.0,4.0,68,0.00,,,0.00,Wunderground v.1.15,2013-02-24 21:33:00,
2013-02-24 13:38:00,46.7,36.7,30.32,WNW,293,4.0,6.0,68,0.00,,,0.00,Wunderground v.1.15,2013-02-24 21:38:00,
2013-02-24 13:44:00,46.8,37.2,30.32,West,272,4.0,5.0,69,0.00,,,0.00,Wunderground v.1.15,2013-02-24 21:44:00,
2013-02-24 13:49:00,46.8,37.2,30.32,West,276,3.0,5.0,69,0.00,,,0.00,Wunderground v.1.15,2013-02-24 21:49:00,
2013-02-24 13:55:00,46.8,37.2,30.31,NW,308,4.0,6.0,69,0.00,,,0.00,Wunderground v.1.15,2013-02-24 21:55:00,
2013-02-24 14:00:00,46.9,37.6,30.31,WNW,296,4.0,4.0,70,0.00,,,0.00,Wunderground v.1.15,2013-02-24 22:00:00,
2013-02-24 14:05:00,46.8,37.2,30.31,WNW,290,4.0,6.0,69,0.00,,,0.00,Wunderground v.1.15,2013-02-24 22:05:00,
2013-02-24 14:11:00,46.7,38.5,30.31,WNW,282,4.0,5.0,73,0.00,,,0.00,Wunderground v.1.15,2013-02-24 22:11:00,
2013-02-24 14:17:00,46.7,37.8,30.31,West,273,4.0,5.0,71,0.00,,,0.00,Wunderground v.1.15,2013-02-24 22:17:00,
2013-02-24 14:23:00,46.9,38.3,30.30,West,273,4.0,4.0,72,0.00,,,0.00,Wunderground v.1.15,2013-02-24 22:23:00,
2013-02-24 14:28:00,47.0,38.4,30.30,West,275,4.0,4.0,72,0.00,,,0.00,Wunderground v.1.15,2013-02-24 22:28:00,
2013-02-24 14:34:00,47.0,38.8,30.30,West,274,4.0,5.0,73,0.00,,,0.00,Wunderground v.1.15,2013-02-24 22:34:00,
2013-02-24 14:40:00,47.0,38.4,30.30,West,274,4.0,5.0,72,0.00,,,0.00,Wunderground v.1.15,2013-02-24 22:40:00,
2013-02-24 14:45:00,46.8,38.9,30.30,West,274,4.0,5.0,74,0.00,,,0.00,Wunderground v.1.15,2013-02-24 22:45:00,
2013-02-24 14:51:00,47.0,39.1,30.30,West,271,4.0,4.0,74,0.00,,,0.00,Wunderground v.1.15,2013-02-24 22:51:00,
2013-02-24 14:56:00,47.0,38.4,30.29,West,260,4.0,6.0,72,0.00,,,0.00,Wunderground v.1.15,2013-02-24 22:56:00,
2013-02-24 15:01:00,47.1,39.2,30.29,West,260,4.0,4.0,74,0.00,,,0.00,Wunderground v.1.15,2013-02-24 23:01:00,
2013-02-24 15:07:00,47.4,39.2,30.29,West,260,4.0,4.0,73,0.00,,,0.00,Wunderground v.1.15,2013-02-24 23:07:00,
2013-02-24 15:13:00,47.1,39.2,30.28,WSW,258,4.0,5.0,74,0.00,,,0.00,Wunderground v.1.15,2013-02-24 23:13:00,
2013-02-24 15:19:00,47.0,38.8,30.29,WSW,258,4.0,6.0,73,0.00,,,0.00,Wunderground v.1.15,2013-02-24 23:19:00,
2013-02-24 15:25:00,46.8,38.9,30.28,West,263,4.0,5.0,74,0.00,,,0.00,Wunderground v.1.15,2013-02-24 23:25:00,
2013-02-24 15:30:00,47.1,39.6,30.28,West,261,4.0,4.0,75,0.00,,,0.00,Wunderground v.1.15,2013-02-24 23:30:00,
2013-02-24 15:36:00,47.2,39.7,30.28,WSW,257,4.0,6.0,75,0.00,,,0.00,Wunderground v.1.15,2013-02-24 23:36:00,
2013-02-24 15:42:00,47.0,39.1,30.28,SW,236,5.0,7.0,74,0.00,,,0.00,Wunderground v.1.15,2013-02-24 23:42:00,
2013-02-24 15:47:00,46.9,39.0,30.28,SW,231,5.0,7.0,74,0.00,,,0.00,Wunderground v.1.15,2013-02-24 23:47:00,
2013-02-24 15:53:00,46.5,39.0,30.28,SW,226,6.0,7.0,75,0.00,,,0.00,Wunderground v.1.15,2013-02-24 23:53:00,
2013-02-24 15:58:00,46.3,39.1,30.28,SW,220,6.0,7.0,76,0.00,,,0.00,Wunderground v.1.15,2013-02-24 23:58:00,
2013-02-24 16:03:00,46.0,38.9,30.28,SW,221,6.0,7.0,76,0.00,,,0.00,Wunderground v.1.15,2013-02-25 00:03:00,
2013-02-24 16:09:00,45.9,39.1,30.28,SW,225,6.0,7.0,77,0.00,,,0.00,Wunderground v.1.15,2013-02-25 00:09:00,
2013-02-24 16:15:00,45.8,39.3,30.28,SW,227,5.0,8.0,78,0.00,,,0.00,Wunderground v.1.15,2013-02-25 00:15:00,
2013-02-24 16:21:00,45.7,39.2,30.27,SW,223,6.0,6.0,78,0.00,,,0.00,Wunderground v.1.15,2013-02-25 00:21:00,
2013-02-24 16:27:00,45.8,39.7,30.27,SW,221,5.0,6.0,79,0.00,,,0.00,Wunderground v.1.15,2013-02-25 00:27:00,
2013-02-24 16:32:00,45.7,39.6,30.27,SW,222,5.0,6.0,79,0.00,,,0.00,Wunderground v.1.15,2013-02-25 00:32:00,
2013-02-24 16:38:00,45.8,39.7,30.26,SW,222,5.0,6.0,79,0.00,,,0.00,Wunderground v.1.15,2013-02-25 00:38:00,
2013-02-24 16:44:00,45.9,39.8,30.26,SW,223,4.0,5.0,79,0.00,,,0.00,Wunderground v.1.15,2013-02-25 00:44:00,
2013-02-24 16:50:00,45.8,39.7,30.26,SW,219,4.0,6.0,79,0.00,,,0.00,Wunderground v.1.15,2013-02-25 00:50:00,
2013-02-24 16:56:00,45.7,39.9,30.26,SW,219,4.0,6.0,80,0.00,,,0.00,Wunderground v.1.15,2013-02-25 00:56:00,
2013-02-24 17:01:00,45.6,40.1,30.26,SW,219,4.0,4.0,81,0.00,,,0.00,Wunderground v.1.15,2013-02-25 01:01:00,
2013-02-24 17:06:00,45.6,40.1,30.26,SW,219,4.0,5.0,81,0.00,,,0.00,Wunderground v.1.15,2013-02-25 01:06:00,
2013-02-24 17:12:00,45.4,39.9,30.26,SSW,207,5.0,5.0,81,0.00,,,0.00,Wunderground v.1.15,2013-02-25 01:12:00,
2013-02-24 17:18:00,45.4,40.2,30.26,SSW,207,5.0,6.0,82,0.00,,,0.00,Wunderground v.1.15,2013-02-25 01:18:00,
2013-02-24 17:24:00,45.4,40.2,30.25,SSW,207,4.0,7.0,82,0.00,,,0.00,Wunderground v.1.15,2013-02-25 01:24:00,
2013-02-24 17:30:00,45.2,40.0,30.25,SSW,205,4.0,6.0,82,0.00,,,0.00,Wunderground v.1.15,2013-02-25 01:30:00,
2013-02-24 17:36:00,45.1,40.2,30.25,SSW,205,5.0,7.0,83,0.00,,,0.00,Wunderground v.1.15,2013-02-25 01:36:00,
2013-02-24 17:42:00,45.0,40.1,30.25,SSW,207,5.0,6.0,83,0.00,,,0.00,Wunderground v.1.15,2013-02-25 01:42:00,
2013-02-24 17:47:00,45.0,40.1,30.25,SSW,207,5.0,6.0,83,0.00,,,0.00,Wunderground v.1.15,2013-02-25 01:47:00,
2013-02-24 17:53:00,44.9,40.0,30.25,SSW,196,5.0,5.0,83,0.00,,,0.00,Wunderground v.1.15,2013-02-25 01:53:00,
2013-02-24 17:59:00,44.8,40.0,30.25,SSW,197,6.0,7.0,83,0.00,,,0.00,Wunderground v.1.15,2013-02-25 01:59:00,
2013-02-24 18:04:00,44.7,40.2,30.25,SSW,202,6.0,7.0,84,0.00,,,0.00,Wunderground v.1.15,2013-02-25 02:04:00,
2013-02-24 18:09:00,44.7,40.2,30.25,SSW,206,5.0,9.0,84,0.00,,,0.00,Wunderground v.1.15,2013-02-25 02:09:00,
2013-02-24 18:14:00,44.8,40.3,30.25,SSW,208,6.0,7.0,84,0.00,,,0.00,Wunderground v.1.15,2013-02-25 02:14:00,
2013-02-24 18:20:00,44.7,40.2,30.25,SSW,197,6.0,6.0,84,0.00,,,0.00,Wunderground v.1.15,2013-02-25 02:20:00,
2013-02-24 18:26:00,44.6,40.1,30.24,SSW,199,6.0,8.0,84,0.00,,,0.00,Wunderground v.1.15,2013-02-25 02:26:00,
2013-02-24 18:31:00,44.5,40.3,30.24,SSW,202,6.0,7.0,85,0.00,,,0.00,Wunderground v.1.15,2013-02-25 02:31:00,
2013-02-24 18:37:00,44.5,40.3,30.24,SSW,196,6.0,9.0,85,0.00,,,0.00,Wunderground v.1.15,2013-02-25 02:37:00,
2013-02-24 18:42:00,44.5,40.3,30.24,South,190,7.0,9.0,85,0.00,,,0.00,Wunderground v.1.15,2013-02-25 02:42:00,
2013-02-24 18:48:00,44.3,40.1,30.24,South,184,6.0,9.0,85,0.00,,,0.00,Wunderground v.1.15,2013-02-25 02:48:00,
2013-02-24 18:54:00,43.9,39.4,30.23,South,169,5.0,7.0,84,0.00,,,0.00,Wunderground v.1.15,2013-02-25 02:54:00,
2013-02-24 19:00:00,43.5,39.3,30.23,SSE,168,5.0,7.0,85,0.00,,,0.00,Wunderground v.1.15,2013-02-25 03:00:00,
2013-02-24 19:06:00,43.2,39.0,30.23,South,175,5.0,9.0,85,0.00,,,0.00,Wunderground v.1.15,2013-02-25 03:06:00,
2013-02-24 19:11:00,43.1,38.9,30.23,South,178,6.0,8.0,85,0.00,,,0.00,Wunderground v.1.15,2013-02-25 03:11:00,
2013-02-24 19:17:00,43.1,38.9,30.23,South,181,5.0,9.0,85,0.00,,,0.00,Wunderground v.1.15,2013-02-25 03:17:00,
2013-02-24 19:23:00,43.1,38.9,30.23,South,174,5.0,6.0,85,0.00,,,0.00,Wunderground v.1.15,2013-02-25 03:23:00,
2013-02-24 19:28:00,43.1,38.9,30.23,South,182,5.0,6.0,85,0.00,,,0.00,Wunderground v.1.15,2013-02-25 03:28:00,
2013-02-24 19:34:00,43.1,38.9,30.23,SSE,159,6.0,9.0,85,0.00,,,0.00,Wunderground v.1.15,2013-02-25 03:34:00,
2013-02-24 19:40:00,43.1,38.9,30.22,South,180,6.0,6.0,85,0.00,,,0.00,Wunderground v.1.15,2013-02-25 03:40:00,
2013-02-24 19:46:00,43.0,38.8,30.22,South,171,6.0,8.0,85,0.00,,,0.00,Wunderground v.1.15,2013-02-25 03:46:00,
2013-02-24 19:52:00,43.0,38.8,30.22,SSE,166,6.0,6.0,85,0.00,,,0.00,Wunderground v.1.15,2013-02-25 03:52:00,
2013-02-24 19:58:00,42.9,38.7,30.21,South,170,5.0,6.0,85,0.00,,,0.00,Wunderground v.1.15,2013-02-25 03:58:00,
2013-02-24 20:03:00,42.9,38.7,30.21,SE,146,5.0,5.0,85,0.00,,,0.00,Wunderground v.1.15,2013-02-25 04:03:00,
2013-02-24 20:09:00,42.9,39.0,30.21,SSE,163,5.0,7.0,86,0.00,,,0.00,Wunderground v.1.15,2013-02-25 04:09:00,
2013-02-24 20:14:00,43.0,39.1,30.21,SSE,163,5.0,8.0,86,0.00,,,0.00,Wunderground v.1.15,2013-02-25 04:14:00,
2013-02-24 20:19:00,43.1,39.2,30.21,South,175,5.0,8.0,86,0.00,,,0.00,Wunderground v.1.15,2013-02-25 04:19:00,
2013-02-24 20:25:00,43.1,39.2,30.21,SSE,165,5.0,6.0,86,0.00,,,0.00,Wunderground v.1.15,2013-02-25 04:25:00,
2013-02-24 20:30:00,43.2,39.3,30.21,South,173,5.0,5.0,86,0.00,,,0.00,Wunderground v.1.15,2013-02-25 04:30:00,
2013-02-24 20:35:00,43.3,39.4,30.21,South,175,5.0,6.0,86,0.00,,,0.00,Wunderground v.1.15,2013-02-25 04:35:00,
2013-02-24 20:41:00,43.5,39.9,30.21,South,169,5.0,6.0,87,0.00,,,0.00,Wunderground v.1.15,2013-02-25 04:41:00,
2013-02-24 20:46:00,43.7,40.1,30.22,South,182,6.0,8.0,87,0.00,,,0.00,Wunderground v.1.15,2013-02-25 04:46:00,
2013-02-24 20:52:00,44.1,40.5,30.22,SSW,194,7.0,7.0,87,0.00,,,0.00,Wunderground v.1.15,2013-02-25 04:52:00,
2013-02-24 20:58:00,44.4,40.8,30.22,SSW,193,8.0,11.0,87,0.00,,,0.00,Wunderground v.1.15,2013-02-25 04:58:00,
2013-02-24 21:00:00,44.4,40.5,30.22,South,174,8.0,9.0,86,0.00,,,0.00,Wunderground v.1.15,2013-02-25 05:00:00,
2013-02-24 21:02:00,44.4,40.8,30.22,SSW,202,8.0,9.0,87,0.00,,,0.00,Wunderground v.1.15,2013-02-25 05:02:00,
2013-02-24 21:06:00,44.5,40.9,30.22,SSW,192,8.0,9.0,87,0.00,,,0.00,Wunderground v.1.15,2013-02-25 05:06:00,
2013-02-24 21:07:00,44.5,40.9,30.22,SSW,194,8.0,9.0,87,0.00,,,0.00,Wunderground v.1.15,2013-02-25 05:07:00,
2013-02-24 21:13:00,44.7,41.1,30.22,SSW,205,8.0,10.0,87,0.00,,,0.00,Wunderground v.1.15,2013-02-25 05:13:00,
2013-02-24 21:18:00,44.7,40.8,30.22,South,189,9.0,10.0,86,0.00,,,0.00,Wunderground v.1.15,2013-02-25 05:18:00,
2013-02-24 21:24:00,44.8,40.9,30.21,SSE,154,9.0,10.0,86,0.00,,,0.00,Wunderground v.1.15,2013-02-25 05:24:00,
2013-02-24 21:30:00,44.7,40.8,30.21,SSW,200,8.0,8.0,86,0.00,,,0.00,Wunderground v.1.15,2013-02-25 05:30:00,
2013-02-24 21:35:00,44.6,40.7,30.21,South,181,8.0,12.0,86,0.00,,,0.00,Wunderground v.1.15,2013-02-25 05:35:00,
2013-02-24 21:41:00,44.5,40.6,30.21,SSW,192,9.0,9.0,86,0.00,,,0.00,Wunderground v.1.15,2013-02-25 05:41:00,
2013-02-24 21:46:00,44.5,40.6,30.21,SSW,198,9.0,16.0,86,0.00,,,0.00,Wunderground v.1.15,2013-02-25 05:46:00,
2013-02-24 21:52:00,44.6,40.7,30.21,South,187,8.0,11.0,86,0.00,,,0.00,Wunderground v.1.15,2013-02-25 05:52:00,
2013-02-24 21:58:00,44.7,40.8,30.21,South,190,9.0,14.0,86,0.00,,,0.00,Wunderground v.1.15,2013-02-25 05:58:00,
2013-02-24 22:03:00,44.8,41.2,30.21,SSW,203,9.0,11.0,87,0.00,,,0.00,Wunderground v.1.15,2013-02-25 06:03:00,
2013-02-24 22:08:00,44.9,41.3,30.21,South,191,9.0,19.0,87,0.00,,,0.00,Wunderground v.1.15,2013-02-25 06:08:00,
2013-02-24 22:14:00,44.9,41.6,30.21,SSW,203,10.0,14.0,88,0.00,,,0.00,Wunderground v.1.15,2013-02-25 06:14:00,
2013-02-24 22:20:00,44.7,41.9,30.20,South,182,11.0,12.0,90,0.00,,,0.00,Wunderground v.1.15,2013-02-25 06:20:00,
2013-02-24 22:26:00,44.4,41.9,30.20,South,188,12.0,14.0,91,0.00,,,0.00,Wunderground v.1.15,2013-02-25 06:26:00,
2013-02-24 22:31:00,44.3,41.8,30.19,South,186,11.0,12.0,91,0.00,,,0.00,Wunderground v.1.15,2013-02-25 06:31:00,
2013-02-24 22:37:00,44.1,41.9,30.19,South,188,11.0,17.0,92,0.00,,,0.00,Wunderground v.1.15,2013-02-25 06:37:00,
2013-02-24 22:43:00,44.0,41.8,30.19,SSW,200,10.0,19.0,92,0.00,,,0.00,Wunderground v.1.15,2013-02-25 06:43:00,
2013-02-24 22:49:00,43.9,42.0,30.19,SSW,200,11.0,19.0,93,0.00,,,0.00,Wunderground v.1.15,2013-02-25 06:49:00,
2013-02-24 22:55:00,44.0,42.1,30.20,South,189,11.0,12.0,93,0.00,,,0.00,Wunderground v.1.15,2013-02-25 06:55:00,
2013-02-24 23:00:00,44.0,42.1,30.20,South,189,11.0,11.0,93,0.00,,,0.00,Wunderground v.1.15,2013-02-25 07:00:00,
2013-02-24 23:05:00,44.0,42.1,30.20,SSW,198,12.0,13.0,93,0.00,,,0.00,Wunderground v.1.15,2013-02-25 07:05:00,
2013-02-24 23:10:00,44.0,42.1,30.19,South,190,13.0,13.0,93,0.00,,,0.00,Wunderground v.1.15,2013-02-25 07:10:00,
2013-02-24 23:16:00,44.0,42.1,30.19,SSW,196,12.0,18.0,93,0.00,,,0.00,Wunderground v.1.15,2013-02-25 07:16:00,
2013-02-24 23:22:00,44.0,42.1,30.18,South,182,12.0,12.0,93,0.00,,,0.00,Wunderground v.1.15,2013-02-25 07:22:00,
2013-02-24 23:28:00,44.1,42.5,30.18,South,182,12.0,14.0,94,0.00,,,0.00,Wunderground v.1.15,2013-02-25 07:28:00,
2013-02-24 23:34:00,44.1,42.5,30.18,SSW,192,12.0,20.0,94,0.00,,,0.00,Wunderground v.1.15,2013-02-25 07:34:00,
2013-02-24 23:39:00,44.1,42.5,30.18,South,185,12.0,20.0,94,0.00,,,0.00,Wunderground v.1.15,2013-02-25 07:39:00,
2013-02-24 23:45:00,44.1,42.5,30.17,South,183,12.0,19.0,94,0.00,,,0.00,Wunderground v.1.15,2013-02-25 07:45:00,
2013-02-24 23:50:00,44.1,42.5,30.18,South,186,12.0,17.0,94,0.00,,,0.00,Wunderground v.1.15,2013-02-25 07:50:00,
2013-02-24 23:55:00,44.1,42.5,30.18,South,176,13.0,19.0,94,0.00,,,0.00,Wunderground v.1.15,2013-02-25 07:55:00,